Time;durP1;ratioP1;P1;durP2;ratioP2;P2;SDS_P1;SDS_P2;PMS_P1;PMS_P2;Temp;Humidity;BMP_temperature;BMP_pressure;BME280_temperature;BME280_humidity;BME280_pressure;Samples;Min_cycle;Max_cycle;Signal;HPM_P1;HPM_P2
2021/11/08 00:02:06;;;;;;;23.73;9.50;;;6.00;99.90;;;;;;4964773;29;20175;-91
2021/11/08 00:04:33;;;;;;;20.95;9.50;;;8.30;99.90;;;;;;4961230;29;20785;-90
2021/11/08 00:07:01;;;;;;;22.45;9.00;;;5.50;99.90;;;;;;4944933;29;20230;-90
2021/11/08 00:09:27;;;;;;;27.30;11.95;;;6.10;99.90;;;;;;4960861;29;20468;-89
2021/11/08 00:11:52;;;;;;;27.57;10.50;;;6.80;99.90;;;;;;4973871;28;20162;-90
2021/11/08 00:14:21;;;;;;;27.87;10.80;;;7.00;99.90;;;;;;4965107;29;20167;-91
2021/11/08 00:22:02;;;;;;;16.53;7.53;;;4.60;99.90;;;;;;4960249;29;20198;-90
2021/11/08 00:24:30;;;;;;;14.00;8.40;;;7.50;99.90;;;;;;4942407;29;20584;-89
2021/11/08 00:27:01;;;;;;;14.68;8.45;;;9.00;99.90;;;;;;4956967;29;20518;-90
2021/11/08 00:29:28;;;;;;;24.42;9.57;;;7.70;99.90;;;;;;4943135;29;20182;-90
2021/11/08 00:31:54;;;;;;;18.20;9.38;;;6.80;99.90;;;;;;4958776;29;20174;-90
2021/11/08 00:34:20;;;;;;;17.50;8.50;;;9.60;99.90;;;;;;4960181;29;20233;-90
2021/11/08 00:36:50;;;;;;;20.37;7.40;;;5.80;99.90;;;;;;4957326;29;20274;-90
2021/11/08 00:39:16;;;;;;;17.73;8.10;;;7.20;99.90;;;;;;4956968;29;20206;-90
2021/11/08 00:41:42;;;;;;;20.50;7.68;;;9.50;99.90;;;;;;4943269;29;20273;-90
2021/11/08 00:44:08;;;;;;;17.13;8.30;;;8.90;99.90;;;;;;4959816;29;20221;-90
2021/11/08 00:46:33;;;;;;;24.20;9.13;;;8.50;99.90;;;;;;4957843;29;20166;-90
2021/11/08 00:48:59;;;;;;;18.60;9.13;;;8.80;99.90;;;;;;4959497;29;20193;-90
2021/11/08 00:51:35;;;;;;;20.40;8.63;;;9.00;99.90;;;;;;4957854;29;20171;-89
2021/11/08 00:54:01;;;;;;;17.48;8.50;;;6.00;99.90;;;;;;4963091;28;20221;-90
2021/11/08 00:56:37;;;;;;;23.03;7.10;;;7.70;99.90;;;;;;4977301;28;20212;-90
2021/11/08 00:59:05;;;;;;;19.23;7.50;;;8.60;99.90;;;;;;4981440;28;20547;-90
2021/11/08 01:01:31;;;;;;;20.38;8.32;;;8.50;99.90;;;;;;4979791;28;20181;-90
2021/11/08 01:03:57;;;;;;;19.88;8.38;;;8.30;99.90;;;;;;4978745;28;20248;-90
2021/11/08 01:06:26;;;;;;;18.73;8.13;;;6.60;99.90;;;;;;4985374;28;20178;-89
2021/11/08 01:08:52;;;;;;;19.80;9.25;;;6.90;99.90;;;;;;4983381;28;20396;-89
2021/11/08 01:11:17;;;;;;;21.43;8.83;;;6.80;99.90;;;;;;4986841;28;20240;-90
2021/11/08 01:13:44;;;;;;;23.33;10.10;;;9.70;99.90;;;;;;4980422;28;20177;-90
2021/11/08 01:16:13;;;;;;;19.85;10.23;;;5.80;99.90;;;;;;4964058;28;20194;-90
2021/11/08 01:18:40;;;;;;;25.08;10.70;;;8.50;99.90;;;;;;4962981;28;20201;-90
2021/11/08 01:21:09;;;;;;;24.95;9.93;;;7.30;99.90;;;;;;4964258;28;20186;-91
2021/11/08 01:23:42;;;;;;;29.52;8.88;;;7.70;99.90;;;;;;4981606;28;20628;-90
2021/11/08 01:26:12;;;;;;;22.58;10.75;;;7.60;99.90;;;;;;4979268;28;20170;-91
2021/11/08 01:28:42;;;;;;;20.00;11.00;;;4.70;99.90;;;;;;4960003;28;20220;-91
2021/11/08 01:31:17;;;;;;;18.60;9.95;;;7.30;99.90;;;;;;4959794;28;20174;-91
2021/11/08 01:33:47;;;;;;;24.38;11.15;;;7.00;99.90;;;;;;4978271;28;20173;-91
2021/11/08 01:36:14;;;;;;;23.48;11.10;;;8.50;99.90;;;;;;4981789;28;20170;-91
2021/11/08 01:38:49;;;;;;;26.90;10.23;;;8.20;99.90;;;;;;4968940;28;20240;-91
2021/11/08 01:41:27;;;;;;;21.38;11.38;;;7.50;99.90;;;;;;4967077;28;20177;-90
2021/11/08 01:43:55;;;;;;;28.55;13.82;;;7.60;99.90;;;;;;4962676;28;20201;-89
2021/11/08 01:46:23;;;;;;;28.60;14.15;;;6.90;99.90;;;;;;4960875;28;20178;-90
2021/11/08 01:48:50;;;;;;;29.80;13.35;;;8.20;99.90;;;;;;4961599;28;20661;-90
2021/11/08 01:51:19;;;;;;;33.72;14.55;;;9.50;99.90;;;;;;4960544;28;20257;-90
2021/11/08 01:53:46;;;;;;;19.50;12.07;;;8.30;99.90;;;;;;4976544;28;20189;-90
2021/11/08 01:56:12;;;;;;;37.70;12.95;;;5.60;99.90;;;;;;4979569;28;20193;-91
2021/11/08 01:58:38;;;;;;;23.58;13.30;;;5.20;99.90;;;;;;4978783;28;20277;-90
2021/11/08 02:01:05;;;;;;;35.58;14.95;;;6.10;99.90;;;;;;4977801;28;20181;-91
2021/11/08 02:03:40;;;;;;;32.28;14.70;;;8.50;99.90;;;;;;4981432;28;20174;-91
2021/11/08 02:06:07;;;;;;;33.58;13.65;;;5.80;99.90;;;;;;4982878;28;20700;-91
2021/11/08 02:08:33;;;;;;;32.88;16.23;;;5.90;99.90;;;;;;4968054;28;20177;-91
2021/11/08 02:11:20;;;;;;;41.08;15.90;;;8.80;99.90;;;;;;4987121;28;20257;-91
2021/11/08 02:13:47;;;;;;;28.05;16.02;;;7.00;99.90;;;;;;4981502;28;20197;-91
2021/11/08 02:16:16;;;;;;;34.80;15.43;;;9.20;99.90;;;;;;4984014;28;20705;-90
2021/11/08 02:18:46;;;;;;;34.50;15.65;;;8.50;99.90;;;;;;4965731;28;20209;-91
2021/11/08 02:21:12;;;;;;;32.60;15.02;;;7.30;99.90;;;;;;4985569;28;20189;-89
2021/11/08 02:23:40;;;;;;;33.75;16.63;;;9.20;99.90;;;;;;4982369;28;20177;-91
2021/11/08 02:26:16;;;;;;;34.78;17.00;;;7.20;99.90;;;;;;4981043;28;20170;-91
2021/11/08 02:28:44;;;;;;;40.45;17.52;;;6.90;99.90;;;;;;4981437;28;20177;-90
2021/11/08 02:31:13;;;;;;;39.35;17.67;;;8.60;99.90;;;;;;4985401;28;20293;-90
2021/11/08 02:33:42;;;;;;;33.55;17.88;;;7.90;99.90;;;;;;4986524;28;20245;-90
2021/11/08 02:36:11;;;;;;;32.47;17.75;;;8.70;99.90;;;;;;4987275;28;20177;-89
2021/11/08 02:38:42;;;;;;;38.65;18.80;;;6.80;99.90;;;;;;4986510;28;20264;-90
2021/11/08 02:41:09;;;;;;;41.95;19.42;;;8.30;99.90;;;;;;4988824;28;20184;-90
2021/11/08 02:43:36;;;;;;;39.08;18.45;;;9.00;99.90;;;;;;4971969;28;20174;-90
2021/11/08 02:48:58;;;;;;;32.35;16.55;;;7.20;99.90;;;;;;4985622;28;20323;-91
2021/11/08 02:51:25;;;;;;;39.03;17.88;;;8.40;99.90;;;;;;4967125;28;20177;-90
2021/11/08 02:54:04;;;;;;;39.45;19.10;;;10.00;99.90;;;;;;4964688;28;20226;-89
2021/11/08 02:56:31;;;;;;;39.45;20.10;;;6.60;99.90;;;;;;4952465;29;20178;-91
2021/11/08 02:58:58;;;;;;;40.75;19.35;;;7.00;99.90;;;;;;4950631;29;20210;-91
2021/11/08 03:01:25;;;;;;;39.15;20.27;;;6.00;99.90;;;;;;4943675;29;20639;-90
2021/11/08 03:03:56;;;;;;;51.25;22.08;;;8.00;99.90;;;;;;4944366;29;20171;-90
2021/11/08 03:06:33;;;;;;;48.28;20.45;;;8.20;99.90;;;;;;4948083;29;20174;-90
2021/11/08 03:09:17;;;;;;;38.55;20.75;;;6.60;99.90;;;;;;4949405;29;20182;-90
2021/11/08 03:11:43;;;;;;;36.17;18.63;;;6.80;99.90;;;;;;4942697;29;20288;-90
2021/11/08 03:14:13;;;;;;;43.07;19.30;;;7.00;99.90;;;;;;4959699;28;20232;-90
2021/11/08 03:19:17;;;;;;;39.77;18.23;;;4.90;99.90;;;;;;4962320;29;20206;-90
2021/11/08 03:21:48;;;;;;;30.42;17.25;;;9.50;99.90;;;;;;4940605;29;20257;-90
2021/11/08 03:24:20;;;;;;;37.78;17.67;;;7.00;99.90;;;;;;4947634;29;20202;-92
2021/11/08 03:26:51;;;;;;;32.88;17.17;;;7.30;99.90;;;;;;4946527;29;20202;-91
2021/11/08 03:29:19;;;;;;;43.28;17.27;;;8.80;99.90;;;;;;4962748;29;20182;-91
2021/11/08 03:31:48;;;;;;;33.88;19.25;;;7.30;99.90;;;;;;4945228;29;20174;-91
2021/11/08 03:34:21;;;;;;;48.63;18.23;;;8.40;99.90;;;;;;4947460;29;20642;-91
2021/11/08 03:36:50;;;;;;;26.05;15.25;;;4.80;99.90;;;;;;4948644;29;20657;-91
2021/11/08 03:39:21;;;;;;;31.02;15.75;;;8.50;99.90;;;;;;4961080;29;20207;-90
2021/11/08 03:41:52;;;;;;;36.63;17.15;;;8.30;99.90;;;;;;4942033;29;20174;-90
2021/11/08 03:44:18;;;;;;;33.38;15.55;;;5.00;99.90;;;;;;4943056;29;20179;-90
2021/11/08 03:46:48;;;;;;;30.53;16.73;;;5.80;99.90;;;;;;4941504;29;20178;-91
2021/11/08 03:49:14;;;;;;;41.97;16.45;;;7.60;99.90;;;;;;4942194;29;20194;-90
2021/11/08 03:51:40;;;;;;;28.40;15.40;;;6.20;99.90;;;;;;4960086;29;20261;-91
2021/11/08 03:54:06;;;;;;;28.27;14.77;;;7.80;99.90;;;;;;4951944;28;20492;-91
2021/11/08 03:56:32;;;;;;;25.13;14.10;;;8.30;99.90;;;;;;4984308;28;20182;-91
2021/11/08 03:59:02;;;;;;;25.35;14.70;;;10.30;99.90;;;;;;4982832;28;20214;-90
2021/11/08 04:01:35;;;;;;;24.30;14.63;;;6.00;99.90;;;;;;4991187;28;20158;-90
2021/11/08 04:04:07;;;;;;;25.23;14.18;;;9.00;99.90;;;;;;5000394;28;20189;-90
2021/11/08 04:06:39;;;;;;;26.45;14.63;;;7.90;99.90;;;;;;5000179;28;20189;-91
2021/11/08 04:09:12;;;;;;;32.97;15.77;;;9.00;99.90;;;;;;4992260;28;20221;-91
2021/11/08 04:11:40;;;;;;;35.50;15.20;;;7.80;99.90;;;;;;4984652;28;20543;-91
2021/11/08 04:14:10;;;;;;;27.98;14.85;;;9.10;99.90;;;;;;4987778;28;20203;-91
2021/11/08 04:16:39;;;;;;;33.05;15.60;;;7.10;99.90;;;;;;5004467;28;20174;-90
2021/11/08 04:19:10;;;;;;;33.15;17.27;;;8.10;99.90;;;;;;5004419;28;20276;-91
2021/11/08 04:21:36;;;;;;;31.13;15.25;;;9.30;99.90;;;;;;5004561;28;20174;-90
2021/11/08 04:24:10;;;;;;;27.55;14.02;;;8.70;99.90;;;;;;5006121;28;20257;-90
2021/11/08 04:26:37;;;;;;;26.23;13.50;;;6.90;99.90;;;;;;5007324;28;20267;-89
2021/11/08 04:29:05;;;;;;;31.33;15.40;;;7.20;99.90;;;;;;5006646;28;20241;-90
2021/11/08 04:31:36;;;;;;;42.25;15.57;;;9.00;99.90;;;;;;5000303;28;20203;-90
2021/11/08 04:34:18;;;;;;;31.20;15.65;;;5.30;99.90;;;;;;4999538;28;20177;-90
2021/11/08 04:45:03;;;;;;;26.05;12.80;;;9.00;99.90;;;;;;4999022;28;20264;-90
2021/11/08 04:47:55;;;;;;;29.27;12.55;;;6.50;99.90;;;;;;4999921;28;20178;-91
2021/11/08 04:50:36;;;;;;;24.90;12.68;;;5.80;99.90;;;;;;4999465;28;20173;-91
2021/11/08 04:55:50;;;;;;;25.97;11.57;;;7.30;99.90;;;;;;4998621;28;20209;-91
2021/11/08 04:58:50;;;;;;;28.42;13.10;;;7.00;99.90;;;;;;5004274;28;20435;-91
2021/11/08 05:29:56;;;;;;;32.78;12.38;;;6.90;99.90;;;;;;5019152;28;20204;-92
2021/11/08 05:31:58;;;;;;;18.67;10.27;;;7.20;99.90;;;;;;4996584;28;20182;-89
2021/11/08 05:34:25;;;;;;;30.30;11.43;;;8.20;99.90;;;;;;4966626;28;20264;-90
2021/11/08 05:36:51;;;;;;;31.17;14.30;;;8.40;99.90;;;;;;4966613;28;20213;-88
2021/11/08 05:39:19;;;;;;;24.60;12.02;;;9.40;99.90;;;;;;4968449;28;20276;-91
2021/11/08 05:42:02;;;;;;;24.58;11.40;;;7.10;99.90;;;;;;4967406;28;20174;-91
2021/11/08 05:44:33;;;;;;;27.02;12.52;;;7.90;99.90;;;;;;4969333;28;20186;-89
2021/11/08 05:47:01;;;;;;;22.70;12.93;;;9.00;99.90;;;;;;4984027;28;20182;-90
2021/11/08 05:49:30;;;;;;;29.63;12.82;;;7.10;99.90;;;;;;4967372;28;20209;-90
2021/11/08 05:52:02;;;;;;;30.35;13.70;;;7.80;99.90;;;;;;4966650;28;20185;-87
2021/11/08 05:54:36;;;;;;;22.65;11.77;;;9.40;99.90;;;;;;4965486;28;20237;-91
2021/11/08 06:49:35;;;;;;;20.00;11.30;;;7.10;99.90;;;;;;4987101;28;20239;-90
2021/11/08 06:52:07;;;;;;;27.63;12.13;;;8.10;99.90;;;;;;4984823;28;20185;-88
2021/11/08 06:54:34;;;;;;;30.65;13.55;;;6.70;99.90;;;;;;4993953;28;20205;-89
2021/11/08 06:57:11;;;;;;;41.22;12.95;;;9.10;99.90;;;;;;4992805;28;20188;-90
2021/11/08 06:59:39;;;;;;;24.92;12.45;;;6.40;99.90;;;;;;4991314;28;20244;-89
2021/11/08 07:02:13;;;;;;;27.70;11.98;;;4.10;99.90;;;;;;5009555;28;20277;-89
2021/11/08 07:04:39;;;;;;;21.65;11.88;;;6.70;99.90;;;;;;5005915;28;20161;-90
2021/11/08 07:07:06;;;;;;;24.00;11.88;;;4.60;99.90;;;;;;5003601;28;20169;-89
2021/11/08 07:09:41;;;;;;;34.83;14.50;;;6.80;99.90;;;;;;4986946;28;20638;-88
2021/11/08 07:12:10;;;;;;;38.80;13.95;;;8.10;99.90;;;;;;5014488;28;20180;-90
2021/11/08 07:14:36;;;;;;;30.77;14.30;;;6.50;99.90;;;;;;4998177;28;20166;-87
2021/11/08 07:17:05;;;;;;;43.53;13.35;;;8.30;99.90;;;;;;5016666;28;20195;-90
2021/11/08 07:19:31;;;;;;;21.02;10.77;;;6.40;99.90;;;;;;4990525;28;20296;-91
2021/11/08 07:21:57;;;;;;;24.37;10.93;;;8.40;99.90;;;;;;4983281;28;20224;-90
2021/11/08 07:24:25;;;;;;;19.05;10.73;;;7.20;99.90;;;;;;5000844;28;20413;-90
2021/11/08 07:26:51;;;;;;;18.27;10.00;;;8.50;99.90;;;;;;5001131;28;20181;-90
2021/11/08 07:29:18;;;;;;;23.10;11.43;;;6.30;99.90;;;;;;4999053;28;20161;-85
2021/11/08 07:31:44;;;;;;;23.30;10.13;;;6.50;99.90;;;;;;4950485;28;20195;-91
2021/11/08 07:34:10;;;;;;;23.73;9.83;;;8.40;99.90;;;;;;4982042;28;20185;-91
2021/11/08 07:36:39;;;;;;;20.90;10.47;;;8.20;99.90;;;;;;4981938;28;20417;-88
2021/11/08 07:39:06;;;;;;;14.27;9.03;;;6.90;99.90;;;;;;4638309;28;10000305;-91
2021/11/08 07:41:42;;;;;;;15.23;10.00;;;6.60;99.90;;;;;;4998429;28;20200;-91
2021/11/08 07:44:10;;;;;;;18.23;8.90;;;9.70;99.90;;;;;;4999479;28;20188;-91
2021/11/08 07:46:37;;;;;;;12.65;8.50;;;8.00;99.90;;;;;;4998788;28;20169;-91
2021/11/08 07:49:05;;;;;;;17.02;9.13;;;8.80;99.90;;;;;;5001907;28;20192;-86
2021/11/08 07:51:33;;;;;;;20.42;8.93;;;6.60;99.90;;;;;;4999075;28;20177;-90
2021/11/08 07:53:59;;;;;;;15.82;10.32;;;5.90;99.90;;;;;;4999218;28;20304;-92
2021/11/08 07:56:25;;;;;;;14.10;8.20;;;8.50;99.90;;;;;;5002593;28;20205;-90
2021/11/08 07:58:54;;;;;;;21.87;9.27;;;8.50;99.90;;;;;;4998882;28;20996;-89
2021/11/08 08:01:19;;;;;;;21.20;9.10;;;8.20;99.90;;;;;;4997469;28;20465;-88
2021/11/08 08:03:47;;;;;;;17.93;9.03;;;9.40;99.90;;;;;;4996973;28;20653;-89
2021/11/08 08:06:14;;;;;;;17.75;8.35;;;9.00;99.90;;;;;;4985469;28;20193;-88
2021/11/08 08:08:41;;;;;;;19.67;7.70;;;9.50;99.90;;;;;;4997355;28;20180;-88
2021/11/08 08:11:10;;;;;;;26.58;9.05;;;10.90;99.90;;;;;;4993937;28;20667;-87
2021/11/08 08:13:37;;;;;;;24.27;8.55;;;9.00;99.90;;;;;;4978798;28;20618;-87
2021/11/08 08:16:09;;;;;;;22.63;8.05;;;12.40;99.90;;;;;;4979513;28;20185;-88
2021/11/08 08:18:47;;;;;;;27.88;8.68;;;8.60;99.90;;;;;;5019329;23;20245;-86
2021/11/08 08:21:13;;;;;;;13.75;9.73;;;11.60;99.90;;;;;;4963344;28;20201;-89
2021/11/08 08:23:41;;;;;;;16.20;9.00;;;10.70;99.90;;;;;;4982727;28;20170;-88
2021/11/08 08:26:09;;;;;;;16.83;9.52;;;10.70;99.90;;;;;;4981834;28;20641;-88
2021/11/08 08:28:37;;;;;;;17.33;8.18;;;8.90;99.90;;;;;;4968115;28;20217;-87
2021/11/08 08:31:03;;;;;;;22.98;8.75;;;11.60;99.90;;;;;;4967224;28;20178;-88
2021/11/08 08:33:34;;;;;;;20.23;8.20;;;10.80;99.90;;;;;;4983646;28;20173;-88
2021/11/08 08:36:00;;;;;;;19.00;8.73;;;10.30;99.90;;;;;;4966461;28;20471;-88
2021/11/08 08:38:38;;;;;;;17.67;9.43;;;8.90;99.90;;;;;;4967185;28;20452;-92
2021/11/08 08:41:04;;;;;;;20.88;10.15;;;9.90;99.90;;;;;;4964176;28;20208;-89
2021/11/08 08:43:30;;;;;;;19.37;10.20;;;10.70;99.90;;;;;;4977576;28;20173;-91
2021/11/08 08:45:59;;;;;;;20.48;9.27;;;10.20;99.90;;;;;;4966824;28;20425;-89
2021/11/08 08:48:30;;;;;;;16.73;8.50;;;10.70;99.90;;;;;;4964802;28;20201;-87
2021/11/08 08:50:57;;;;;;;15.95;8.73;;;8.40;99.90;;;;;;4985273;28;20181;-88
2021/11/08 08:53:26;;;;;;;22.10;9.30;;;12.10;99.90;;;;;;4969133;28;20178;-89
2021/11/08 08:55:55;;;;;;;16.33;8.70;;;10.60;99.90;;;;;;4937104;29;20233;-89
2021/11/08 08:58:21;;;;;;;14.45;7.97;;;11.80;99.90;;;;;;4953105;29;20179;-88
2021/11/08 09:01:02;;;;;;;16.52;8.13;;;11.20;99.90;;;;;;4970200;28;20234;-87
2021/11/08 09:03:28;;;;;;;23.42;9.43;;;9.20;99.90;;;;;;4949803;29;20264;-88
2021/11/08 09:05:57;;;;;;;13.00;7.70;;;9.60;99.90;;;;;;4961138;28;20250;-88
2021/11/08 09:08:27;;;;;;;21.90;8.98;;;9.30;99.90;;;;;;4964553;28;20219;-85
2021/11/08 09:11:00;;;;;;;16.67;8.38;;;9.60;99.90;;;;;;4961087;29;20198;-88
2021/11/08 09:13:26;;;;;;;17.40;7.80;;;9.80;99.90;;;;;;4943619;29;20233;-88
2021/11/08 09:16:14;;;;;;;;;;;;;;;;;;;;;
2021/11/08 09:18:49;;;;;;;17.50;7.53;;;12.70;99.90;;;;;;4973789;28;20214;-89
2021/11/08 09:21:17;;;;;;;16.23;8.37;;;10.30;99.90;;;;;;4979780;28;20173;-86
2021/11/08 09:23:52;;;;;;;16.33;7.75;;;10.10;99.90;;;;;;4962578;28;20415;-89
2021/11/08 09:26:20;;;;;;;20.20;9.00;;;11.10;99.90;;;;;;4963569;28;20196;-87
2021/11/08 09:28:47;;;;;;;18.70;8.20;;;12.80;99.90;;;;;;4977585;28;20464;-88
2021/11/08 09:31:13;;;;;;;18.13;8.97;;;9.40;99.90;;;;;;4961732;28;20174;-90
2021/11/08 09:33:39;;;;;;;16.15;7.50;;;11.30;99.90;;;;;;4963718;28;20417;-91
2021/11/08 09:36:08;;;;;;;16.97;7.90;;;12.40;99.90;;;;;;4618705;28;10000132;-89
2021/11/08 09:38:47;;;;;;;15.57;7.22;;;9.80;99.90;;;;;;4978413;28;20635;-90
2021/11/08 09:41:40;;;;;;;10.60;5.70;;;13.10;99.90;;;;;;4949258;28;20192;-92
2021/11/08 09:44:12;;;;;;;21.37;9.37;;;15.20;99.90;;;;;;4980110;28;20429;-87
2021/11/08 09:46:38;;;;;;;11.33;6.70;;;15.10;99.90;;;;;;4971439;28;20422;-87
2021/11/08 09:49:07;;;;;;;13.00;6.50;;;14.10;99.90;;;;;;4942083;29;20418;-87
2021/11/08 09:51:43;;;;;;;9.33;6.00;;;13.30;99.90;;;;;;4942536;29;20197;-86
2021/11/08 09:54:10;;;;;;;12.33;6.57;;;13.00;99.90;;;;;;4958968;29;20956;-87
2021/11/08 09:56:44;;;;;;;16.37;7.60;;;14.80;99.90;;;;;;4964126;29;20418;-87
2021/11/08 09:59:27;;;;;;;9.03;6.37;;;14.10;99.90;;;;;;4957013;28;20475;-89
2021/11/08 10:01:55;;;;;;;12.40;6.20;;;13.60;99.90;;;;;;4964847;28;20489;-90
2021/11/08 10:04:22;;;;;;;14.97;6.63;;;14.70;99.90;;;;;;4983208;28;20401;-89
2021/11/08 10:06:51;;;;;;;12.67;7.70;;;13.20;99.90;;;;;;4948554;29;20482;-88
2021/11/08 10:09:19;;;;;;;15.50;7.57;;;14.50;99.90;;;;;;5000851;28;20439;-89
2021/11/08 10:12:16;;;;;;;11.93;6.60;;;15.10;99.90;;;;;;4990215;28;20431;-87
2021/11/08 10:14:53;;;;;;;13.70;6.93;;;15.30;99.90;;;;;;5007703;28;20444;-88
2021/11/08 10:17:22;;;;;;;22.10;7.50;;;12.80;99.90;;;;;;5001539;28;20424;-89
2021/11/08 10:19:50;;;;;;;14.63;7.37;;;14.70;99.90;;;;;;4954708;28;20847;-88
2021/11/08 10:22:26;;;;;;;;;;;;;;;;;;;;;
2021/11/08 10:25:15;;;;;;;17.27;8.40;;;10.50;99.90;;;;;;4950719;29;20435;-89
2021/11/08 10:27:53;;;;;;;18.33;8.53;;;14.10;99.90;;;;;;4934018;29;20447;-88
2021/11/08 10:30:40;;;;;;;15.80;7.77;;;13.30;99.90;;;;;;4951363;29;20411;-89
2021/11/08 10:33:22;;;;;;;22.17;9.30;;;14.10;99.90;;;;;;4955914;29;20443;-88
2021/11/08 10:35:54;;;;;;;23.73;9.40;;;13.20;99.90;;;;;;4914196;29;21047;-88
2021/11/08 10:38:26;;;;;;;19.37;8.13;;;11.50;99.90;;;;;;4925189;29;20493;-88
2021/11/08 10:40:56;;;;;;;24.20;7.87;;;14.30;99.90;;;;;;4914130;29;20462;-88
2021/11/08 10:43:43;;;;;;;15.73;7.90;;;13.60;99.90;;;;;;4910386;29;20531;-90
2021/11/08 10:46:20;;;;;;;15.13;7.50;;;11.80;99.90;;;;;;4926788;29;20503;-91
2021/11/08 10:49:25;;;;;;;;;;;;;;;;;;;;;
2021/11/08 10:51:54;;;;;;;16.23;8.47;;;11.60;99.90;;;;;;4927154;29;20494;-89
2021/11/08 10:54:41;;;;;;;21.40;8.93;;;13.90;99.90;;;;;;4929335;29;20416;-89
2021/11/08 10:57:17;;;;;;;17.07;7.70;;;16.80;99.90;;;;;;4909717;29;20459;-90
2021/11/08 10:59:51;;;;;;;18.87;7.93;;;15.60;99.90;;;;;;4907581;29;20494;-89
2021/11/08 11:02:22;;;;;;;13.07;7.40;;;15.90;99.90;;;;;;4910887;29;20442;-88
2021/11/08 11:05:33;;;;;;;15.97;7.13;;;16.40;99.40;;;;;;4928904;29;20419;-89
2021/11/08 11:08:18;;;;;;;11.60;5.90;;;17.70;95.70;;;;;;4935491;29;20427;-90
2021/11/08 11:14:17;;;;;;;17.73;8.30;;;18.90;92.20;;;;;;4920055;29;20435;-89
2021/11/08 11:16:52;;;;;;;22.90;9.57;;;19.50;91.90;;;;;;4936394;29;20468;-86
2021/11/08 11:19:29;;;;;;;;;;;;;;;;;;;;;
2021/11/08 11:22:00;;;;;;;19.63;9.30;;;16.60;95.20;;;;;;4950834;29;20467;-85
2021/11/08 11:24:41;;;;;;;16.73;10.00;;;16.00;95.80;;;;;;4921194;29;20481;-86
2021/11/08 11:27:11;;;;;;;18.20;9.37;;;16.30;93.80;;;;;;4936415;29;20407;-86
2021/11/08 11:29:37;;;;;;;15.17;8.70;;;16.00;92.50;;;;;;4936598;29;20420;-83
2021/11/08 11:32:03;;;;;;;14.00;8.07;;;15.90;88.80;;;;;;4936646;29;20423;-85
2021/11/08 11:35:39;;;;;;;15.93;9.27;;;17.10;90.30;;;;;;4942593;29;20167;-90
2021/11/08 11:38:01;;;;;;;;;;;;;;;;;;;;;
2021/11/08 11:41:36;;;;;;;;;;;;;;;;;;;;;
2021/11/08 11:44:48;;;;;;;14.47;8.60;;;17.90;97.40;;;;;;4891404;29;20485;-88
2021/11/08 11:47:22;;;;;;;12.63;9.10;;;17.20;98.80;;;;;;4910270;29;20423;-88
2021/11/08 11:49:48;;;;;;;15.00;9.23;;;15.30;99.20;;;;;;4928063;29;20458;-89
2021/11/08 11:55:41;;;;;;;18.30;9.47;;;14.90;99.90;;;;;;4873591;29;20183;-90
2021/11/08 11:58:39;;;;;;;20.80;8.43;;;14.10;99.90;;;;;;4948739;29;20459;-89
2021/11/08 12:01:31;;;;;;;17.73;8.40;;;15.30;99.90;;;;;;4921554;29;21135;-88
2021/11/08 12:04:51;;;;;;;14.33;8.40;;;13.20;99.90;;;;;;4942937;29;20426;-90
2021/11/08 12:08:09;;;;;;;;;;;;;;;;;;;;;
2021/11/08 12:14:50;;;;;;;;;;;;;;;;;;;;;
2021/11/08 12:26:46;;;;;;;19.27;9.60;;;12.60;99.90;;;;;;4682124;26;20489;-89
2021/11/08 12:29:23;;;;;;;19.57;9.17;;;13.20;99.90;;;;;;4968807;28;20551;-86
2021/11/08 12:32:24;;;;;;;;;;;;;;;;;;;;;
2021/11/08 12:35:05;;;;;;;13.73;7.23;;;12.80;99.90;;;;;;4988569;28;20437;-88
2021/11/08 12:37:37;;;;;;;24.70;6.53;;;13.90;99.90;;;;;;4985700;28;20487;-90
2021/11/08 12:40:49;;;;;;;17.03;6.60;;;13.00;99.90;;;;;;4985309;28;20489;-91
2021/11/08 12:43:26;;;;;;;17.07;8.07;;;15.20;99.90;;;;;;4982776;28;20453;-89
2021/11/08 12:46:06;;;;;;;13.87;7.13;;;15.20;99.90;;;;;;4965926;28;20440;-91
2021/11/08 12:48:48;;;;;;;13.40;8.33;;;14.20;99.90;;;;;;4968343;29;20423;-91
2021/11/08 12:51:15;;;;;;;13.73;7.60;;;13.50;99.90;;;;;;4985101;28;20437;-88
2021/11/08 12:53:55;;;;;;;16.90;7.97;;;12.30;99.90;;;;;;4967876;28;20477;-88
2021/11/08 12:57:09;;;;;;;18.70;8.03;;;12.90;99.90;;;;;;4969266;28;20436;-91
2021/11/08 13:00:17;;;;;;;;;;;;;;;;;;;;;
2021/11/08 13:03:00;;;;;;;23.07;7.97;;;15.00;99.90;;;;;;4982597;28;20449;-90
2021/11/08 13:06:04;;;;;;;;;;;;;;;;;;;;;
2021/11/08 13:08:39;;;;;;;23.70;8.93;;;14.20;99.90;;;;;;4983932;28;20393;-90
2021/11/08 13:11:15;;;;;;;19.30;7.87;;;14.40;99.90;;;;;;4973300;28;20792;-89
2021/11/08 13:14:01;;;;;;;25.17;9.40;;;14.30;99.90;;;;;;4971898;28;20401;-89
2021/11/08 13:16:42;;;;;;;17.80;7.73;;;12.80;99.90;;;;;;4953365;28;20437;-85
2021/11/08 13:19:13;;;;;;;14.67;7.63;;;12.80;99.90;;;;;;4970778;28;20477;-85
2021/11/08 13:21:39;;;;;;;18.20;8.40;;;14.70;99.90;;;;;;4957254;28;20409;-85
2021/11/08 13:24:07;;;;;;;22.80;8.97;;;12.00;99.90;;;;;;4975698;28;20429;-86
2021/11/08 13:26:33;;;;;;;21.60;8.43;;;12.60;99.90;;;;;;4958057;28;20461;-86
2021/11/08 13:29:00;;;;;;;17.07;7.27;;;12.10;99.90;;;;;;4958549;28;20425;-86
2021/11/08 13:31:26;;;;;;;11.90;8.20;;;12.80;99.90;;;;;;4974978;28;20500;-87
2021/11/08 13:33:55;;;;;;;20.70;7.10;;;12.80;99.90;;;;;;4958589;28;20797;-87
2021/11/08 13:36:23;;;;;;;21.87;6.80;;;13.20;99.90;;;;;;4958962;28;20421;-87
2021/11/08 13:38:52;;;;;;;21.57;6.90;;;12.90;99.90;;;;;;4957868;28;20473;-87
2021/11/08 13:41:24;;;;;;;15.67;7.37;;;15.00;99.90;;;;;;4957841;28;20422;-86
2021/11/08 13:43:55;;;;;;;16.63;6.67;;;12.90;99.90;;;;;;4976428;28;20412;-87
2021/11/08 13:46:54;;;;;;;10.60;6.33;;;12.00;99.90;;;;;;4980655;28;20416;-87
2021/11/08 13:49:45;;;;;;;24.33;7.63;;;13.20;99.90;;;;;;4973590;28;20504;-94
2021/11/08 13:52:41;;;;;;;14.00;6.37;;;12.80;99.90;;;;;;4970582;28;20414;-88
2021/11/08 13:57:44;;;;;;;17.37;7.53;;;12.60;99.90;;;;;;5065780;23;20217;-86
2021/11/08 14:00:19;;;;;;;18.00;6.80;;;12.60;99.90;;;;;;4988931;28;20421;-91
2021/11/08 14:02:49;;;;;;;21.00;7.23;;;13.20;99.90;;;;;;4973740;28;20436;-88
2021/11/08 14:05:18;;;;;;;21.00;7.53;;;12.60;99.90;;;;;;4970319;28;20444;-89
2021/11/08 14:08:03;;;;;;;16.90;7.13;;;14.40;99.90;;;;;;4985542;28;20421;-91
2021/11/08 14:10:54;;;;;;;21.67;7.97;;;13.80;99.90;;;;;;4991640;28;20417;-92
2021/11/08 14:13:59;;;;;;;15.30;6.37;;;14.60;99.90;;;;;;4987082;28;20913;-92
2021/11/08 14:16:24;;;;;;;11.90;5.73;;;10.60;99.90;;;;;;4969176;28;20413;-89
2021/11/08 14:18:54;;;;;;;11.40;7.10;;;13.80;99.90;;;;;;4971643;28;20607;-88
2021/11/08 14:21:32;;;;;;;15.60;7.17;;;12.30;99.90;;;;;;4989227;28;20166;-93
2021/11/08 14:27:19;;;;;;;13.93;6.23;;;13.50;99.90;;;;;;4985832;28;20533;-91
2021/11/08 14:29:58;;;;;;;13.60;6.30;;;16.90;99.90;;;;;;4953132;28;20438;-90
2021/11/08 14:32:27;;;;;;;17.60;7.80;;;12.60;99.90;;;;;;4969385;28;20444;-90
2021/11/08 14:35:11;;;;;;;18.73;7.10;;;11.90;99.90;;;;;;4984003;28;20417;-92
2021/11/08 14:38:03;;;;;;;16.27;6.00;;;13.70;99.90;;;;;;4969007;28;20418;-91
2021/11/08 14:40:41;;;;;;;11.43;5.87;;;12.60;99.90;;;;;;4964990;28;20527;-90
2021/11/08 14:43:20;;;;;;;11.13;6.70;;;12.10;99.90;;;;;;4970239;28;20487;-89
2021/11/08 14:46:18;;;;;;;15.10;5.90;;;11.80;99.90;;;;;;4964469;28;20421;-90
2021/11/08 14:48:44;;;;;;;16.93;7.73;;;11.40;99.90;;;;;;4966019;28;20429;-89
2021/11/08 14:51:22;;;;;;;18.97;6.77;;;12.20;99.90;;;;;;4979676;28;20425;-90
2021/11/08 14:54:07;;;;;;;8.23;5.93;;;13.80;99.90;;;;;;4960548;28;20417;-87
2021/11/08 14:56:38;;;;;;;9.63;5.70;;;12.70;99.90;;;;;;4960983;28;20457;-87
2021/11/08 14:59:13;;;;;;;18.43;5.27;;;14.10;99.90;;;;;;4962512;28;20264;-91
2021/11/08 15:01:44;;;;;;;12.13;5.10;;;12.40;99.90;;;;;;4962734;29;20421;-90
2021/11/08 15:04:35;;;;;;;;;;;;;;;;;;;;;
2021/11/08 15:07:09;;;;;;;9.20;5.07;;;13.50;99.90;;;;;;4969712;29;20556;-90
2021/11/08 15:09:51;;;;;;;13.63;5.47;;;12.60;99.90;;;;;;5033032;23;20479;-85
2021/11/08 15:12:25;;;;;;;22.83;6.73;;;11.10;99.90;;;;;;5015842;28;20450;-87
2021/11/08 15:14:57;;;;;;;16.33;5.97;;;11.90;99.90;;;;;;4996692;28;20428;-87
2021/11/08 15:17:30;;;;;;;19.43;7.40;;;11.70;99.90;;;;;;5000639;28;20442;-87
2021/11/08 15:20:17;;;;;;;19.43;6.93;;;11.60;99.90;;;;;;5000143;28;20478;-86
2021/11/08 15:22:48;;;;;;;9.90;4.43;;;11.70;99.90;;;;;;4999513;28;20424;-86
2021/11/08 15:25:22;;;;;;;11.20;5.20;;;13.00;99.90;;;;;;4999565;28;20468;-87
2021/11/08 15:28:00;;;;;;;11.23;5.10;;;11.60;99.90;;;;;;4997281;28;20174;-85
2021/11/08 15:30:31;;;;;;;16.77;5.75;;;11.40;99.90;;;;;;4997663;28;20417;-86
2021/11/08 15:33:10;;;;;;;17.50;5.50;;;11.30;99.90;;;;;;4998481;28;20177;-85
2021/11/08 15:35:39;;;;;;;10.65;5.40;;;14.00;99.90;;;;;;4996380;28;20173;-87